KCSV/CSV METAR and TAF weather

Enter ICAO airport designator
Station Type Date Time Source
KCSV METAR 2020/01/24 15:53 UTC NOAA

KCSV 241553Z AUTO 19009KT 4SM -RA BR BKN007 BKN021 OVC028 06/04 A2993 RMK AO2 SLP138 P0008 T00610044


Station Type Date Time Source
KCSV Decoded METAR 2020/01/24 15:53 UTC NOAA

CROSSVILLE MEMORIAL AIRPORT , TN, United States (KCSV) 35-57N 85-05W 570M
Jan 24, 2020 - 10:53 AM EST / 2020.01.24 1553 UTC
Wind: from the S (190 degrees) at 10 MPH (9 KT):0
Visibility: 4 mile(s):0
Sky conditions: overcast
Weather: light rain; mist
Precipitation last hour: 0.08 inches
Temperature: 43.0 F (6.1 C)
Dew Point: 39.9 F (4.4 C)
Relative Humidity: 88%
Pressure (altimeter): 29.93 in. Hg (1013 hPa)
ob: KCSV 241553Z AUTO 19009KT 4SM -RA BR BKN007 BKN021 OVC028 06/04 A2993 RMK AO2 SLP138 P0008 T00610044
cycle: 16

Station Type Date Time Source
KCSV TAF 2020/01/24 13:04 UTC NOAA

TAF
AMD KCSV 241302Z 2413/2512 18011G21KT 4SM -SHRA OVC007
FM241700 21009G14KT P6SM BKN015
FM242300 24008KT P6SM VCSH OVC025
FM250200 24010G18KT P6SM OVC015

Example: see airport list